Crater Lake National Park, OR

1:20 AM PDT on August 30, 2014 (GMT -0700)
Klamath Agency on Wood River Canal | Change Station
CLOSE
Current Station
Personal Weather Station
Location: Chiloquin, OR
Elevation: 4170 ft
Nearby Weather Stations

Elev 4170 ft 42.58 °N, 121.93 °W | Updated 19 minutes ago

Overcast
Overcast
48.1 °F
Feels Like 48 °F
N
0.0
Wind Variable Wind from ESE
Gusts 6.0 mph

Today
High -- | Low -- °F
--% Chance of Precip.
Yesterday
High -- | Low -- °F
Precip. -- in
6:30 AM 7:44 PM
Waxing Crescent, 20% visible
Pressure 29.92 in
Visibility 10.0 miles
Clouds Overcast 4600 ft
Windchill 48 °F
Dew Point 40 °F
Humidity 73%
Rainfall -9999.00 in
Snow Depth Not available.
UV 0 out of 12
Pollen 6.50 out of 12
Air Quality Not available.
Flu Activity Not available.
METAR KLMT 300753Z AUTO 00000KT 10SM OVC046 14/05 A3004 RMK AO2 SLP131 T01390050 402940094

More Conditions Fewer Conditions

Pressure 29.92 in
Visibility 10.0 miles
Clouds Overcast 4600 ft
Windchill 48 °F
Dew Point 40 °F
Humidity 73%
Rainfall -9999.00 in
Snow Depth Not available.
UV 0 out of 12
Pollen 6.50 out of 12
Air Quality Not available.
Flu Activity Not available.
METAR KLMT 300753Z AUTO 00000KT 10SM OVC046 14/05 A3004 RMK AO2 SLP131 T01390050 402940094

More Conditions Fewer Conditions

10-Day Weather Forecast

Almanac

Astronomy

Aug. 30, 2014 Rise Set
Actual Time 6:30 AM PDT 7:44 PM PDT
Civil Twilight 6:01 AM PDT 8:13 PM PDT
Nautical Twilight 5:26 AM PDT 8:48 PM PDT
Astronomical Twilight 4:49 AM PDT 9:25 PM PDT
Moon 11:30 AM PDT 10:15 PM PDT
Length of Visible Light 14h 12m
Length of Day
13h 14m
Tomorrow will be 2m 45s shorter.
Waxing Crescent, 20% of the Moon is Illuminated
Today
Waxing Crescent
Sep 2
First Quarter
Sep 8
Full
Sep 15
Last Quarter
Sep 24
New

Today's Extremes

State Highs State Lows

Community

WunderPhotos

Upload Photos

1,748,472 photos uploaded!

Nearby

Snow Depth

Station Depth Elevation
Sevenmile Marsh 0 in 6200 ft
Cold Springs Camp 0 in 6100 ft
Fourmile Lake 2 in 6000 ft
Billie Creek Divide 0 in 5300 ft
Annie Springs 0 in 6020 ft

Earthquake Activity

City Distance Mag. Time & Date
No recent earthquake activity has been reported nearby.
Minimum magnitude displayed is 2.5.

Coastal Water Temperatures

Place Temperature
No Stations Reporting

Nearby Weather Stations